createdAt,value
2018-07-07T00:00:19.724Z,17.836609
2018-07-07T00:01:25.132Z,17.826538
2018-07-07T00:02:30.537Z,17.826538
2018-07-07T00:03:35.946Z,17.786255
2018-07-07T00:04:41.359Z,17.776184
2018-07-07T00:05:46.771Z,17.776184
2018-07-07T00:06:52.180Z,17.776184
2018-07-07T00:07:57.591Z,17.756042
2018-07-07T00:09:03.005Z,17.756042
2018-07-07T00:10:08.420Z,17.745972
2018-07-07T00:11:13.827Z,17.715759
2018-07-07T00:12:19.232Z,17.715759
2018-07-07T00:13:24.636Z,17.715759
2018-07-07T00:14:30.039Z,17.675476
2018-07-07T00:15:35.461Z,17.655334
2018-07-07T00:16:40.862Z,17.645264
2018-07-07T00:17:46.270Z,17.625122
2018-07-07T00:18:52.668Z,17.615051
2018-07-07T00:19:58.099Z,17.59491
2018-07-07T00:21:03.507Z,17.564697
2018-07-07T00:22:08.914Z,17.574768
2018-07-07T00:23:14.320Z,17.544556
2018-07-07T00:24:19.721Z,17.534485
2018-07-07T00:25:25.136Z,17.524414
2018-07-07T00:26:30.544Z,17.504272
2018-07-07T00:27:36.941Z,17.524414
2018-07-07T00:28:42.344Z,17.504272
2018-07-07T00:29:47.743Z,17.504272
2018-07-07T00:30:53.165Z,17.524414
2018-07-07T00:31:58.574Z,17.494202
2018-07-07T00:33:03.980Z,17.524414
2018-07-07T00:34:09.385Z,17.504272
2018-07-07T00:35:15.794Z,17.504272
2018-07-07T00:36:21.196Z,17.504272
2018-07-07T00:37:26.601Z,17.504272
2018-07-07T00:38:32.005Z,17.463989
2018-07-07T00:39:37.412Z,17.453918
2018-07-07T00:40:42.834Z,17.433777
2018-07-07T00:41:48.235Z,17.393494
2018-07-07T00:42:53.645Z,17.413635
2018-07-07T00:43:59.049Z,17.393494
2018-07-07T00:45:04.467Z,17.413635
2018-07-07T00:46:09.884Z,17.393494
2018-07-07T00:47:15.289Z,17.393494
2018-07-07T00:48:20.692Z,17.413635
2018-07-07T00:49:26.102Z,17.433777
2018-07-07T00:50:31.518Z,17.413635
2018-07-07T00:51:36.919Z,17.413635
2018-07-07T00:52:42.321Z,17.373352
2018-07-07T00:53:47.749Z,17.383423
2018-07-07T00:54:53.153Z,17.35321
2018-07-07T00:55:58.565Z,17.373352
2018-07-07T00:57:03.973Z,17.373352
2018-07-07T00:58:09.385Z,17.34314
2018-07-07T00:59:14.789Z,17.34314
2018-07-07T01:00:20.193Z,17.312927
2018-07-07T01:01:25.620Z,17.322998
2018-07-07T01:02:31.023Z,17.312927
2018-07-07T01:03:36.424Z,17.312927
2018-07-07T01:04:41.832Z,17.302856
2018-07-07T01:05:47.247Z,17.282715
2018-07-07T01:06:52.653Z,17.272644
2018-07-07T01:07:58.057Z,17.282715
2018-07-07T01:09:03.459Z,17.242432
2018-07-07T01:10:08.893Z,17.252502
2018-07-07T01:11:14.315Z,17.242432
2018-07-07T01:12:19.728Z,17.22229
2018-07-07T01:13:25.129Z,17.202148
2018-07-07T01:14:30.533Z,17.192078
2018-07-07T01:15:35.944Z,17.192078
2018-07-07T01:16:41.356Z,17.171936
2018-07-07T01:17:46.758Z,17.161865
2018-07-07T01:18:52.164Z,17.131653
2018-07-07T01:19:57.570Z,17.121582
2018-07-07T01:21:02.995Z,17.10144
2018-07-07T01:22:08.409Z,17.09137
2018-07-07T01:23:14.800Z,17.09137
2018-07-07T01:24:20.202Z,17.09137
2018-07-07T01:25:25.606Z,17.061157
2018-07-07T01:26:32.016Z,17.061157
2018-07-07T01:27:37.431Z,17.061157
2018-07-07T01:28:42.842Z,17.041016
2018-07-07T01:29:48.243Z,17.041016
2018-07-07T01:30:53.656Z,17.020874
2018-07-07T01:31:59.067Z,16.990662
2018-07-07T01:33:04.480Z,16.980591
2018-07-07T01:34:09.890Z,16.990662
2018-07-07T01:35:15.298Z,16.980591
2018-07-07T01:36:20.698Z,16.980591
2018-07-07T01:37:26.126Z,16.97052
2018-07-07T01:38:31.533Z,16.950378
2018-07-07T01:39:51.850Z,16.97052
2018-07-07T01:40:57.255Z,16.950378
2018-07-07T01:42:02.668Z,16.950378
2018-07-07T01:43:08.070Z,16.950378
2018-07-07T01:44:13.481Z,16.950378
2018-07-07T01:45:18.883Z,16.950378
2018-07-07T01:46:25.279Z,16.940308
2018-07-07T01:47:30.700Z,16.920166
2018-07-07T01:48:36.132Z,16.950378
2018-07-07T01:49:41.506Z,16.920166
2018-07-07T01:50:46.913Z,16.900024
2018-07-07T01:51:52.332Z,16.869812
2018-07-07T01:52:57.748Z,16.869812
2018-07-07T01:54:03.146Z,16.8396
2018-07-07T01:55:09.556Z,16.819458
2018-07-07T01:56:14.967Z,16.819458
2018-07-07T01:57:21.373Z,16.799316
2018-07-07T01:58:26.778Z,16.789246
2018-07-07T01:59:32.182Z,16.789246
2018-07-07T02:00:37.594Z,16.769104
2018-07-07T02:01:43.003Z,16.728821
2018-07-07T02:02:49.429Z,16.738892
2018-07-07T02:03:54.831Z,16.728821
2018-07-07T02:05:00.232Z,16.728821
2018-07-07T02:06:05.638Z,16.71875
2018-07-07T02:07:11.077Z,16.71875
2018-07-07T02:08:16.479Z,16.698608
2018-07-07T02:09:21.885Z,16.698608
2018-07-07T02:10:27.305Z,16.648254
2018-07-07T02:11:32.700Z,16.668396
2018-07-07T02:12:38.119Z,16.638184
2018-07-07T02:13:43.520Z,16.607971
2018-07-07T02:14:48.921Z,16.607971
2018-07-07T02:15:54.333Z,16.58783
2018-07-07T02:16:59.771Z,16.577759
2018-07-07T02:18:05.173Z,16.567688
2018-07-07T02:19:10.580Z,16.567688
2018-07-07T02:20:15.985Z,16.547546
2018-07-07T02:21:21.392Z,16.507263
2018-07-07T02:22:26.808Z,16.517334
2018-07-07T02:23:32.211Z,16.507263
2018-07-07T02:24:37.617Z,16.487122
2018-07-07T02:25:43.022Z,16.456909
2018-07-07T02:26:48.431Z,16.456909
2018-07-07T02:27:53.850Z,16.416626
2018-07-07T02:28:59.259Z,16.386414
2018-07-07T02:30:04.665Z,16.33606
2018-07-07T02:31:10.080Z,16.33606
2018-07-07T02:32:15.489Z,16.325989
2018-07-07T02:33:20.908Z,16.315918
2018-07-07T02:34:26.308Z,16.255493
2018-07-07T02:35:31.712Z,16.245422
2018-07-07T02:36:37.126Z,16.21521
2018-07-07T02:37:42.540Z,16.205139
2018-07-07T02:38:47.943Z,16.184998
2018-07-07T02:39:53.345Z,16.174927
2018-07-07T02:40:58.748Z,16.164856
2018-07-07T02:42:04.159Z,16.164856
2018-07-07T02:43:09.565Z,16.134644
2018-07-07T02:44:14.970Z,16.144714
2018-07-07T02:45:20.378Z,16.134644
2018-07-07T02:46:25.841Z,16.134644
2018-07-07T02:47:31.211Z,16.144714
2018-07-07T02:48:36.630Z,16.134644
2018-07-07T02:49:43.027Z,16.104431
2018-07-07T02:50:48.422Z,16.104431
2018-07-07T02:51:53.821Z,16.09436
2018-07-07T02:52:59.236Z,16.09436
2018-07-07T02:54:04.641Z,16.09436
2018-07-07T02:55:10.036Z,16.08429
2018-07-07T02:56:15.438Z,16.064148
2018-07-07T02:57:20.846Z,16.054077
2018-07-07T02:58:26.256Z,16.033936
2018-07-07T02:59:31.659Z,16.023865
2018-07-07T03:00:37.065Z,16.023865
2018-07-07T03:01:43.461Z,16.023865
2018-07-07T03:02:48.864Z,16.003723
2018-07-07T03:03:54.282Z,15.993652
2018-07-07T03:04:59.687Z,15.983582
2018-07-07T03:06:05.093Z,15.983582
2018-07-07T03:07:10.493Z,15.953369
2018-07-07T03:08:15.897Z,15.953369
2018-07-07T03:09:21.315Z,15.953369
2018-07-07T03:10:26.717Z,15.933228
2018-07-07T03:11:32.125Z,15.933228
2018-07-07T03:12:37.529Z,15.913086
2018-07-07T03:13:42.944Z,15.913086
2018-07-07T03:14:48.349Z,15.903015
2018-07-07T03:15:53.753Z,15.903015
2018-07-07T03:17:00.150Z,15.882874
2018-07-07T03:18:05.556Z,15.882874
2018-07-07T03:19:10.968Z,15.882874
2018-07-07T03:20:16.374Z,15.882874
2018-07-07T03:21:21.777Z,15.872803
2018-07-07T03:22:27.178Z,15.872803
2018-07-07T03:23:33.570Z,15.882874
2018-07-07T03:24:38.995Z,15.852661
2018-07-07T03:25:44.399Z,15.83252
2018-07-07T03:26:49.800Z,15.83252
2018-07-07T03:27:55.212Z,15.812378
2018-07-07T03:29:00.617Z,15.812378
2018-07-07T03:30:06.039Z,15.812378
2018-07-07T03:31:11.447Z,15.802307
2018-07-07T03:32:16.853Z,15.802307
2018-07-07T03:33:22.259Z,15.802307
2018-07-07T03:34:28.683Z,15.762024
2018-07-07T03:35:34.075Z,15.772095
2018-07-07T03:36:39.489Z,15.772095
2018-07-07T03:37:44.893Z,15.762024
2018-07-07T03:38:50.298Z,15.772095
2018-07-07T03:39:55.718Z,15.762024
2018-07-07T03:41:01.124Z,15.731812
2018-07-07T03:42:06.530Z,15.721741
2018-07-07T03:43:11.927Z,15.721741
2018-07-07T03:44:17.362Z,15.721741
2018-07-07T03:45:22.764Z,15.701599
2018-07-07T03:46:28.169Z,15.691528
2018-07-07T03:47:33.570Z,15.681458
2018-07-07T03:48:38.979Z,15.681458
2018-07-07T03:49:44.392Z,15.661316
2018-07-07T03:50:49.795Z,15.651245
2018-07-07T03:51:55.201Z,15.661316
2018-07-07T03:53:00.610Z,15.651245
2018-07-07T03:54:06.017Z,15.621033
2018-07-07T03:55:11.433Z,15.621033
2018-07-07T03:56:16.835Z,15.621033
2018-07-07T03:57:22.247Z,15.621033
2018-07-07T03:58:27.653Z,15.600891
2018-07-07T03:59:33.069Z,15.59082
2018-07-07T04:00:38.474Z,15.58075
2018-07-07T04:01:43.875Z,15.58075
2018-07-07T04:02:49.281Z,15.59082
2018-07-07T04:03:54.685Z,15.59082
2018-07-07T04:05:00.103Z,15.58075
2018-07-07T04:06:05.508Z,15.58075
2018-07-07T04:07:10.941Z,15.560608
2018-07-07T04:08:16.328Z,15.59082
2018-07-07T04:09:21.748Z,15.59082
2018-07-07T04:10:27.152Z,15.58075
2018-07-07T04:11:32.555Z,15.58075
2018-07-07T04:12:37.962Z,15.58075
2018-07-07T04:13:43.368Z,15.58075
2018-07-07T04:14:48.787Z,15.59082
2018-07-07T04:15:54.188Z,15.58075
2018-07-07T04:16:59.586Z,15.560608
2018-07-07T04:18:04.990Z,15.520325
2018-07-07T04:19:10.394Z,15.500183
2018-07-07T04:20:15.808Z,15.469971
2018-07-07T04:21:21.218Z,15.449829
2018-07-07T04:22:26.621Z,15.439758
2018-07-07T04:23:32.024Z,15.429688
2018-07-07T04:24:37.459Z,15.439758
2018-07-07T04:25:42.869Z,15.429688
2018-07-07T04:26:48.276Z,15.429688
2018-07-07T04:27:53.681Z,15.429688
2018-07-07T04:28:59.087Z,15.429688
2018-07-07T04:30:04.498Z,15.439758
2018-07-07T04:31:09.907Z,15.429688
2018-07-07T04:32:15.305Z,15.439758
2018-07-07T04:33:20.712Z,15.469971
2018-07-07T04:34:26.110Z,15.449829
2018-07-07T04:35:31.527Z,15.469971
2018-07-07T04:36:36.932Z,15.469971
2018-07-07T04:37:42.341Z,15.480042
2018-07-07T04:38:47.758Z,15.469971
2018-07-07T04:39:53.193Z,15.469971
2018-07-07T04:40:58.596Z,15.480042
2018-07-07T04:42:04.000Z,15.449829
2018-07-07T04:43:09.404Z,15.449829
2018-07-07T04:44:14.806Z,15.439758
2018-07-07T04:45:20.226Z,15.439758
2018-07-07T04:46:25.626Z,15.439758
2018-07-07T04:47:31.032Z,15.449829
2018-07-07T04:48:36.439Z,15.449829
2018-07-07T04:49:41.844Z,15.449829
2018-07-07T04:50:47.262Z,15.449829
2018-07-07T04:51:52.664Z,15.469971
2018-07-07T04:52:58.068Z,15.469971
2018-07-07T04:54:03.475Z,15.449829
2018-07-07T04:55:08.903Z,15.500183
2018-07-07T04:56:14.322Z,15.500183
2018-07-07T04:57:19.718Z,15.500183
2018-07-07T04:58:25.132Z,15.500183
2018-07-07T04:59:30.543Z,15.510254
2018-07-07T05:00:35.962Z,15.560608
2018-07-07T05:01:42.354Z,15.560608
2018-07-07T05:02:47.755Z,15.59082
2018-07-07T05:03:53.160Z,15.600891
2018-07-07T05:04:58.567Z,15.651245
2018-07-07T05:06:03.986Z,15.651245
2018-07-07T05:07:09.393Z,15.681458
2018-07-07T05:08:14.801Z,15.691528
2018-07-07T05:09:20.202Z,15.721741
2018-07-07T05:10:25.609Z,15.731812
2018-07-07T05:11:31.033Z,15.782166
2018-07-07T05:12:36.438Z,15.802307
2018-07-07T05:13:42.835Z,15.83252
2018-07-07T05:14:49.238Z,15.852661
2018-07-07T05:15:54.670Z,15.903015
2018-07-07T05:17:00.076Z,15.953369
2018-07-07T05:18:05.480Z,15.983582
2018-07-07T05:19:10.886Z,16.023865
2018-07-07T05:20:16.298Z,16.054077
2018-07-07T05:21:21.719Z,16.064148
2018-07-07T05:22:27.124Z,16.09436
2018-07-07T05:23:32.537Z,16.134644
2018-07-07T05:24:37.940Z,16.144714
2018-07-07T05:25:43.347Z,16.184998
2018-07-07T05:26:48.766Z,16.21521
2018-07-07T05:27:54.165Z,16.255493
2018-07-07T05:28:59.577Z,16.285706
2018-07-07T05:30:04.978Z,16.356201
2018-07-07T05:31:10.403Z,16.386414
2018-07-07T05:32:15.809Z,16.426697
2018-07-07T05:33:21.211Z,16.426697
2018-07-07T05:34:26.616Z,16.487122
2018-07-07T05:35:32.042Z,16.517334
2018-07-07T05:36:37.466Z,16.567688
2018-07-07T05:37:42.866Z,16.607971
2018-07-07T05:38:48.269Z,16.668396
2018-07-07T05:39:53.678Z,16.698608
2018-07-07T05:40:59.086Z,16.728821
2018-07-07T05:42:04.500Z,16.738892
2018-07-07T05:43:09.906Z,16.759033
2018-07-07T05:44:15.315Z,16.759033
2018-07-07T05:45:20.718Z,16.819458
2018-07-07T05:46:26.136Z,16.829529
2018-07-07T05:47:32.530Z,16.8396
2018-07-07T05:48:37.940Z,16.829529
2018-07-07T05:49:43.349Z,16.879883
2018-07-07T05:50:48.761Z,16.910095
2018-07-07T05:51:54.171Z,16.910095
2018-07-07T05:52:59.579Z,16.950378
2018-07-07T05:54:04.991Z,16.97052
2018-07-07T05:55:11.385Z,16.990662
2018-07-07T05:56:16.788Z,17.041016
2018-07-07T05:57:22.226Z,17.071228
2018-07-07T05:58:27.618Z,17.121582
2018-07-07T05:59:33.019Z,17.131653
2018-07-07T06:00:38.425Z,17.141724
2018-07-07T06:01:43.851Z,17.161865
2018-07-07T06:02:49.255Z,17.192078
2018-07-07T06:03:54.662Z,17.202148
2018-07-07T06:05:00.101Z,17.252502
2018-07-07T06:06:05.507Z,17.272644
2018-07-07T06:07:10.927Z,17.312927
2018-07-07T06:08:16.327Z,17.34314
2018-07-07T06:09:21.739Z,17.35321
2018-07-07T06:10:27.141Z,17.383423
2018-07-07T06:11:32.553Z,17.413635
2018-07-07T06:12:37.970Z,17.433777
2018-07-07T06:13:43.374Z,17.453918
2018-07-07T06:14:48.781Z,17.453918
2018-07-07T06:15:54.189Z,17.453918
2018-07-07T06:16:59.622Z,17.47406
2018-07-07T06:18:05.027Z,17.47406
2018-07-07T06:19:10.428Z,17.453918
2018-07-07T06:20:15.829Z,17.453918
2018-07-07T06:21:21.239Z,17.47406
2018-07-07T06:22:26.651Z,17.463989
2018-07-07T06:23:32.054Z,17.494202
2018-07-07T06:24:37.467Z,17.494202
2018-07-07T06:25:42.875Z,17.47406
2018-07-07T06:26:48.339Z,17.47406
2018-07-07T06:27:53.690Z,17.504272
2018-07-07T06:28:59.104Z,17.494202
2018-07-07T06:30:04.513Z,17.524414
2018-07-07T06:31:09.918Z,17.524414
2018-07-07T06:32:15.348Z,17.534485
2018-07-07T06:33:20.750Z,17.544556
2018-07-07T06:34:26.173Z,17.574768
2018-07-07T06:35:31.594Z,17.59491
2018-07-07T06:36:36.991Z,17.574768
2018-07-07T06:37:42.408Z,17.59491
2018-07-07T06:38:47.830Z,17.615051
2018-07-07T06:39:53.243Z,17.59491
2018-07-07T06:40:59.640Z,17.615051
2018-07-07T06:42:05.045Z,17.59491
2018-07-07T06:43:10.470Z,17.625122
2018-07-07T06:44:15.876Z,17.625122
2018-07-07T06:45:21.278Z,17.675476
2018-07-07T06:46:26.697Z,17.675476
2018-07-07T06:47:32.121Z,17.715759
2018-07-07T06:48:37.536Z,17.72583
2018-07-07T06:49:42.948Z,17.756042
2018-07-07T06:50:48.367Z,17.776184
2018-07-07T06:51:53.768Z,17.806396
2018-07-07T06:52:59.192Z,17.826538
2018-07-07T06:54:04.636Z,17.826538
2018-07-07T06:55:10.001Z,17.836609
2018-07-07T06:56:15.411Z,17.85675
2018-07-07T06:57:20.818Z,17.876892
2018-07-07T06:58:26.242Z,17.897034
2018-07-07T06:59:31.666Z,17.937317
2018-07-07T07:00:37.068Z,17.957458
2018-07-07T07:01:42.481Z,17.967529
2018-07-07T07:02:47.897Z,17.957458
2018-07-07T07:03:53.300Z,17.967529
2018-07-07T07:04:58.709Z,17.987671
2018-07-07T07:06:04.115Z,18.007812
2018-07-07T07:07:09.520Z,18.017883
2018-07-07T07:08:14.935Z,18.048096
2018-07-07T07:09:20.340Z,18.048096
2018-07-07T07:10:25.744Z,18.088379
2018-07-07T07:11:31.147Z,18.108521
2018-07-07T07:12:36.566Z,18.148804
2018-07-07T07:13:41.983Z,18.179016
2018-07-07T07:14:47.391Z,18.239441
2018-07-07T07:15:52.792Z,18.259583
2018-07-07T07:16:58.200Z,18.269653
2018-07-07T07:18:03.629Z,18.309937
2018-07-07T07:19:09.049Z,18.309937
2018-07-07T07:20:14.453Z,18.340149
2018-07-07T07:21:19.859Z,18.340149
2018-07-07T07:22:25.262Z,18.360291
2018-07-07T07:23:30.675Z,18.380432
2018-07-07T07:24:36.083Z,18.410645
2018-07-07T07:25:42.487Z,18.390503
2018-07-07T07:26:48.885Z,18.420715
2018-07-07T07:27:54.288Z,18.430786
2018-07-07T07:28:59.711Z,18.430786
2018-07-07T07:30:05.114Z,18.450928
2018-07-07T07:31:10.514Z,18.48114
2018-07-07T07:32:15.916Z,18.491211
2018-07-07T07:33:21.322Z,18.521423
2018-07-07T07:34:26.803Z,18.561707
2018-07-07T07:35:32.140Z,18.571777
2018-07-07T07:36:37.552Z,18.60199
2018-07-07T07:37:42.960Z,18.632202
2018-07-07T07:38:48.386Z,18.642273
2018-07-07T07:39:53.794Z,18.662415
2018-07-07T07:40:59.196Z,18.682556
2018-07-07T07:42:04.611Z,18.712769
2018-07-07T07:43:10.060Z,18.763123
2018-07-07T07:44:15.460Z,18.763123
2018-07-07T07:45:21.844Z,18.793335
2018-07-07T07:46:27.251Z,18.793335
2018-07-07T07:47:32.661Z,18.823547
2018-07-07T07:48:38.069Z,18.85376
2018-07-07T07:49:43.483Z,18.863831
2018-07-07T07:50:48.882Z,18.914185
2018-07-07T07:51:54.302Z,18.934326
2018-07-07T07:52:59.706Z,18.914185
2018-07-07T07:54:06.120Z,18.944397
2018-07-07T07:55:11.570Z,18.964539
2018-07-07T07:56:16.972Z,18.964539
2018-07-07T07:57:22.374Z,18.944397
2018-07-07T07:58:27.777Z,18.964539
2018-07-07T07:59:33.189Z,18.98468
2018-07-07T08:00:38.592Z,19.014893
2018-07-07T08:01:44.004Z,19.004822
2018-07-07T08:02:49.411Z,19.065247
2018-07-07T08:03:55.819Z,19.065247
2018-07-07T08:05:01.226Z,19.045105
2018-07-07T08:06:06.634Z,19.085388
2018-07-07T08:07:12.037Z,19.115601
2018-07-07T08:08:17.443Z,19.145813
2018-07-07T08:09:22.849Z,19.165955
2018-07-07T08:10:28.268Z,19.186096
2018-07-07T08:11:33.675Z,19.186096
2018-07-07T08:12:39.082Z,19.216309
2018-07-07T08:13:45.486Z,19.256592
2018-07-07T08:14:50.908Z,19.256592
2018-07-07T08:15:56.311Z,19.296875
2018-07-07T08:17:01.717Z,19.306946
2018-07-07T08:18:07.127Z,19.337158
2018-07-07T08:19:12.532Z,19.337158
2018-07-07T08:20:17.964Z,19.347229
2018-07-07T08:21:23.357Z,19.367371
2018-07-07T08:22:28.813Z,19.377441
2018-07-07T08:23:34.164Z,19.417725
2018-07-07T08:24:39.571Z,19.417725
2018-07-07T08:25:45.990Z,19.437866
2018-07-07T08:26:51.399Z,19.48822
2018-07-07T08:27:56.811Z,19.518433
2018-07-07T08:29:02.222Z,19.528503
2018-07-07T08:30:07.644Z,19.558716
2018-07-07T08:31:13.047Z,19.619141
2018-07-07T08:32:18.455Z,19.639282
2018-07-07T08:33:23.858Z,19.699707
2018-07-07T08:34:29.284Z,19.709778
2018-07-07T08:35:35.560Z,19.750061
2018-07-07T08:36:40.971Z,19.770203
2018-07-07T08:37:46.385Z,19.770203
2018-07-07T08:38:51.809Z,19.780273
2018-07-07T08:39:57.216Z,19.790344
2018-07-07T08:41:02.631Z,19.790344
2018-07-07T08:42:08.092Z,19.810486
2018-07-07T08:43:13.444Z,19.810486
2018-07-07T08:44:18.846Z,19.810486
2018-07-07T08:45:25.242Z,19.820557
2018-07-07T08:46:30.674Z,19.86084
2018-07-07T08:47:36.080Z,19.870911
2018-07-07T08:48:41.488Z,19.891052
2018-07-07T08:49:46.885Z,19.901123
2018-07-07T08:50:52.303Z,19.931335
2018-07-07T08:51:57.711Z,19.941406
2018-07-07T08:53:03.121Z,19.961548
2018-07-07T08:54:08.533Z,19.99176
2018-07-07T08:55:13.932Z,20.001831
2018-07-07T08:56:19.349Z,20.042114
2018-07-07T08:57:24.753Z,20.072327
2018-07-07T08:58:30.155Z,20.072327
2018-07-07T08:59:35.563Z,20.082397
2018-07-07T09:00:40.967Z,20.082397
2018-07-07T09:01:46.400Z,20.092468
2018-07-07T09:02:51.807Z,20.11261
2018-07-07T09:03:57.213Z,20.142822
2018-07-07T09:05:02.620Z,20.173035
2018-07-07T09:06:08.037Z,20.193176
2018-07-07T09:07:13.441Z,20.193176
2018-07-07T09:08:19.836Z,20.233459
2018-07-07T09:09:25.242Z,20.253601
2018-07-07T09:10:30.647Z,20.293884
2018-07-07T09:11:36.060Z,20.334167
2018-07-07T09:12:41.468Z,20.36438
2018-07-07T09:13:46.871Z,20.424805
2018-07-07T09:14:52.278Z,20.455017
2018-07-07T09:15:57.683Z,20.4953
2018-07-07T09:17:03.102Z,20.525513
2018-07-07T09:18:08.499Z,20.555725
2018-07-07T09:19:13.900Z,20.575867
2018-07-07T09:20:19.303Z,20.606079
2018-07-07T09:21:24.715Z,20.636292
2018-07-07T09:22:30.123Z,20.666504
2018-07-07T09:23:35.529Z,20.696716
2018-07-07T09:24:40.937Z,20.706787
2018-07-07T09:25:46.351Z,20.74707
2018-07-07T09:26:51.788Z,20.787354
2018-07-07T09:27:57.192Z,20.817566
2018-07-07T09:29:02.598Z,20.847778
2018-07-07T09:30:08.006Z,20.857849
2018-07-07T09:31:13.407Z,20.888062
2018-07-07T09:32:18.824Z,20.918274
2018-07-07T09:33:24.226Z,20.918274
2018-07-07T09:34:29.640Z,20.928345
2018-07-07T09:35:35.037Z,20.978699
2018-07-07T09:36:40.455Z,21.008911
2018-07-07T09:37:45.874Z,21.039124
2018-07-07T09:38:51.334Z,21.049194
2018-07-07T09:39:56.684Z,21.099548
2018-07-07T09:41:02.090Z,21.109619
2018-07-07T09:42:07.504Z,21.159973
2018-07-07T09:43:12.911Z,21.200256
2018-07-07T09:44:18.319Z,21.220398
2018-07-07T09:45:23.726Z,21.260681
2018-07-07T09:46:29.171Z,21.290894
2018-07-07T09:47:34.581Z,21.321106
2018-07-07T09:48:39.991Z,21.381531
2018-07-07T09:49:45.396Z,21.381531
2018-07-07T09:50:50.799Z,21.411743
2018-07-07T09:51:56.213Z,21.431885
2018-07-07T09:53:01.616Z,21.472168
2018-07-07T09:54:07.026Z,21.532593
2018-07-07T09:55:12.435Z,21.582947
2018-07-07T09:56:17.851Z,21.62323
2018-07-07T09:57:23.259Z,21.653442
2018-07-07T09:58:28.668Z,21.673584
2018-07-07T09:59:34.068Z,21.693726
2018-07-07T10:00:39.476Z,21.734009
2018-07-07T10:01:44.913Z,21.774292
2018-07-07T10:02:50.306Z,21.804504
2018-07-07T10:03:55.705Z,21.844788
2018-07-07T10:05:01.111Z,21.875
2018-07-07T10:06:06.518Z,21.935425
2018-07-07T10:07:11.933Z,22.00592
2018-07-07T10:08:17.337Z,22.066345
2018-07-07T10:09:22.753Z,22.116699
2018-07-07T10:10:28.152Z,22.12677
2018-07-07T10:11:33.565Z,22.12677
2018-07-07T10:12:38.993Z,22.146912
2018-07-07T10:13:44.401Z,22.12677
2018-07-07T10:14:49.803Z,22.106628
2018-07-07T10:15:56.200Z,22.146912
2018-07-07T10:17:01.609Z,22.207336
2018-07-07T10:18:07.024Z,22.217407
2018-07-07T10:19:12.444Z,22.24762
2018-07-07T10:20:17.854Z,22.24762
2018-07-07T10:21:23.264Z,22.277832
2018-07-07T10:22:28.671Z,22.277832
2018-07-07T10:23:34.087Z,22.297974
2018-07-07T10:24:39.495Z,22.277832
2018-07-07T10:25:44.898Z,22.277832
2018-07-07T10:26:50.303Z,22.267761
2018-07-07T10:27:55.724Z,22.24762
2018-07-07T10:29:01.128Z,22.227478
2018-07-07T10:30:06.533Z,22.227478
2018-07-07T10:31:11.943Z,22.207336
2018-07-07T10:32:17.350Z,22.227478
2018-07-07T10:33:22.765Z,22.217407
2018-07-07T10:34:28.170Z,22.217407
2018-07-07T10:35:33.573Z,22.217407
2018-07-07T10:36:38.987Z,22.227478
2018-07-07T10:37:46.368Z,22.277832
2018-07-07T10:38:51.797Z,22.297974
2018-07-07T10:39:57.206Z,22.338257
2018-07-07T10:41:02.608Z,22.328186
2018-07-07T10:42:08.012Z,22.358398
2018-07-07T10:43:13.460Z,22.368469
2018-07-07T10:44:18.834Z,22.368469
2018-07-07T10:45:24.274Z,22.398682
2018-07-07T10:46:29.644Z,22.428894
2018-07-07T10:47:35.049Z,22.479248
2018-07-07T10:48:40.483Z,22.519531
2018-07-07T10:49:45.889Z,22.549744
2018-07-07T10:50:51.293Z,22.590027
2018-07-07T10:51:56.702Z,22.640381
2018-07-07T10:53:02.117Z,22.680664
2018-07-07T10:54:07.527Z,22.700806
2018-07-07T10:55:12.935Z,22.710876
2018-07-07T10:56:18.339Z,22.771301
2018-07-07T10:57:23.741Z,22.831726
2018-07-07T10:58:29.164Z,22.892151
2018-07-07T10:59:34.573Z,22.932434
2018-07-07T11:00:39.983Z,23.013
2018-07-07T11:01:46.377Z,23.043213
2018-07-07T11:02:51.781Z,23.033142
2018-07-07T11:03:57.195Z,23.013
2018-07-07T11:05:02.600Z,22.962646
2018-07-07T11:06:08.998Z,22.932434
2018-07-07T11:07:14.403Z,22.932434
2018-07-07T11:08:19.832Z,22.922363
2018-07-07T11:09:25.240Z,22.912292
2018-07-07T11:10:30.644Z,22.922363
2018-07-07T11:11:36.046Z,22.912292
2018-07-07T11:12:41.447Z,22.922363
2018-07-07T11:13:46.860Z,22.952576
2018-07-07T11:14:52.275Z,22.982788
2018-07-07T11:15:57.672Z,23.013
2018-07-07T11:17:03.089Z,23.063354
2018-07-07T11:18:08.510Z,23.103638
2018-07-07T11:19:13.916Z,23.143921
2018-07-07T11:20:19.320Z,23.143921
2018-07-07T11:21:24.718Z,23.174133
2018-07-07T11:22:30.136Z,23.224487
2018-07-07T11:23:35.561Z,23.284912
2018-07-07T11:24:40.968Z,23.284912
2018-07-07T11:25:47.362Z,23.294983
2018-07-07T11:26:52.773Z,23.325195
2018-07-07T11:27:58.177Z,23.355408
2018-07-07T11:29:03.594Z,23.38562
2018-07-07T11:30:09.008Z,23.435974
2018-07-07T11:31:14.416Z,23.50647
2018-07-07T11:32:19.821Z,23.536682
2018-07-07T11:33:25.227Z,23.556824
2018-07-07T11:34:30.646Z,23.587036
2018-07-07T11:35:37.043Z,23.597107
2018-07-07T11:36:42.788Z,23.587036
2018-07-07T11:37:47.865Z,23.597107
2018-07-07T11:38:53.282Z,23.607178
2018-07-07T11:39:58.700Z,23.627319
2018-07-07T11:41:04.104Z,23.627319
2018-07-07T11:42:09.562Z,23.63739
2018-07-07T11:43:14.908Z,23.63739
2018-07-07T11:44:20.323Z,23.657532
2018-07-07T11:45:25.736Z,23.697815
2018-07-07T11:46:31.144Z,23.707886
2018-07-07T11:47:36.554Z,23.728027
2018-07-07T11:48:41.958Z,23.778381
2018-07-07T11:49:47.421Z,23.788452
2018-07-07T11:50:52.826Z,23.838806
2018-07-07T11:51:58.232Z,23.858948
2018-07-07T11:53:03.641Z,23.88916
2018-07-07T11:54:09.054Z,23.879089
2018-07-07T11:55:14.460Z,23.879089
2018-07-07T11:56:19.866Z,23.879089
2018-07-07T11:57:25.272Z,23.858948
2018-07-07T11:58:30.675Z,23.879089
2018-07-07T11:59:36.093Z,23.848877
2018-07-07T12:00:41.495Z,23.848877
2018-07-07T12:01:46.905Z,23.838806
2018-07-07T12:02:52.308Z,23.838806
2018-07-07T12:03:57.735Z,23.848877
2018-07-07T12:05:03.142Z,23.858948
2018-07-07T12:06:08.552Z,23.88916
2018-07-07T12:07:13.964Z,23.919373
2018-07-07T12:08:19.390Z,23.969727
2018-07-07T12:09:24.885Z,24.030151
2018-07-07T12:10:30.297Z,24.070435
2018-07-07T12:11:35.695Z,24.100647
2018-07-07T12:12:41.103Z,24.130859
2018-07-07T12:13:46.503Z,24.161072
2018-07-07T12:14:51.924Z,24.191284
2018-07-07T12:15:57.333Z,24.231567
2018-07-07T12:17:03.734Z,24.26178
2018-07-07T12:18:10.134Z,24.312134
2018-07-07T12:19:15.553Z,24.362488
2018-07-07T12:20:20.960Z,24.372559
2018-07-07T12:21:26.363Z,24.382629
2018-07-07T12:22:31.774Z,24.402771
2018-07-07T12:23:37.788Z,24.382629
2018-07-07T12:24:43.210Z,24.382629
2018-07-07T12:25:48.609Z,24.382629
2018-07-07T12:26:54.018Z,24.382629
2018-07-07T12:27:59.423Z,24.382629
2018-07-07T12:29:04.837Z,24.382629
2018-07-07T12:30:10.254Z,24.372559